sensor_id;sensor_type;location;lat;lon;timestamp;P1;durP1;ratioP1;P2;durP2;ratioP2
25717;SDS011;13574;52.040;5.692;2023-02-02T00:00:46;16.55;;;4.63;;
25717;SDS011;13574;52.040;5.692;2023-02-02T00:03:12;22.30;;;4.97;;
25717;SDS011;13574;52.040;5.692;2023-02-02T00:05:38;18.63;;;4.47;;
25717;SDS011;13574;52.040;5.692;2023-02-02T00:08:08;21.77;;;4.35;;
25717;SDS011;13574;52.040;5.692;2023-02-02T00:10:34;19.52;;;4.55;;
25717;SDS011;13574;52.040;5.692;2023-02-02T00:12:59;18.73;;;4.60;;
25717;SDS011;13574;52.040;5.692;2023-02-02T00:15:25;24.50;;;5.28;;
25717;SDS011;13574;52.040;5.692;2023-02-02T00:17:50;25.95;;;4.43;;
25717;SDS011;13574;52.040;5.692;2023-02-02T00:20:16;16.58;;;4.43;;
25717;SDS011;13574;52.040;5.692;2023-02-02T00:22:42;29.23;;;4.35;;
25717;SDS011;13574;52.040;5.692;2023-02-02T00:25:07;21.67;;;4.65;;
25717;SDS011;13574;52.040;5.692;2023-02-02T00:27:33;23.38;;;4.22;;
25717;SDS011;13574;52.040;5.692;2023-02-02T00:29:59;23.13;;;4.20;;
25717;SDS011;13574;52.040;5.692;2023-02-02T00:32:25;27.27;;;4.90;;
25717;SDS011;13574;52.040;5.692;2023-02-02T00:34:50;18.83;;;4.07;;
25717;SDS011;13574;52.040;5.692;2023-02-02T00:37:16;25.63;;;4.50;;
25717;SDS011;13574;52.040;5.692;2023-02-02T00:39:41;24.80;;;4.97;;
25717;SDS011;13574;52.040;5.692;2023-02-02T00:42:08;21.55;;;3.85;;
25717;SDS011;13574;52.040;5.692;2023-02-02T00:44:35;20.77;;;3.95;;
25717;SDS011;13574;52.040;5.692;2023-02-02T00:47:19;19.25;;;3.83;;
25717;SDS011;13574;52.040;5.692;2023-02-02T00:49:46;27.20;;;4.50;;
25717;SDS011;13574;52.040;5.692;2023-02-02T00:52:12;29.70;;;4.45;;
25717;SDS011;13574;52.040;5.692;2023-02-02T00:54:38;22.77;;;3.70;;
25717;SDS011;13574;52.040;5.692;2023-02-02T00:57:03;26.67;;;3.80;;
25717;SDS011;13574;52.040;5.692;2023-02-02T00:59:29;18.30;;;4.47;;
25717;SDS011;13574;52.040;5.692;2023-02-02T01:01:55;18.63;;;3.90;;
25717;SDS011;13574;52.040;5.692;2023-02-02T01:04:20;18.85;;;4.00;;
25717;SDS011;13574;52.040;5.692;2023-02-02T01:06:46;18.25;;;3.25;;
25717;SDS011;13574;52.040;5.692;2023-02-02T01:09:11;14.63;;;3.90;;
25717;SDS011;13574;52.040;5.692;2023-02-02T01:11:37;19.05;;;4.38;;
25717;SDS011;13574;52.040;5.692;2023-02-02T01:14:03;17.08;;;4.00;;
25717;SDS011;13574;52.040;5.692;2023-02-02T01:16:28;19.10;;;3.72;;
25717;SDS011;13574;52.040;5.692;2023-02-02T01:18:54;24.42;;;4.68;;
25717;SDS011;13574;52.040;5.692;2023-02-02T01:21:20;16.98;;;3.70;;
25717;SDS011;13574;52.040;5.692;2023-02-02T01:23:46;22.48;;;4.63;;
25717;SDS011;13574;52.040;5.692;2023-02-02T01:26:13;24.05;;;4.30;;
25717;SDS011;13574;52.040;5.692;2023-02-02T01:28:39;18.45;;;4.28;;
25717;SDS011;13574;52.040;5.692;2023-02-02T01:31:06;25.65;;;5.15;;
25717;SDS011;13574;52.040;5.692;2023-02-02T01:33:34;21.38;;;4.53;;
25717;SDS011;13574;52.040;5.692;2023-02-02T01:36:02;14.57;;;4.40;;
25717;SDS011;13574;52.040;5.692;2023-02-02T01:38:29;21.02;;;4.30;;
25717;SDS011;13574;52.040;5.692;2023-02-02T01:40:56;18.15;;;3.50;;
25717;SDS011;13574;52.040;5.692;2023-02-02T01:43:23;18.45;;;3.92;;
25717;SDS011;13574;52.040;5.692;2023-02-02T01:45:50;20.13;;;3.78;;
25717;SDS011;13574;52.040;5.692;2023-02-02T01:48:21;15.07;;;3.47;;
25717;SDS011;13574;52.040;5.692;2023-02-02T01:50:53;15.75;;;3.47;;
25717;SDS011;13574;52.040;5.692;2023-02-02T01:53:21;18.23;;;3.67;;
25717;SDS011;13574;52.040;5.692;2023-02-02T01:55:48;12.85;;;3.08;;
25717;SDS011;13574;52.040;5.692;2023-02-02T01:58:18;11.52;;;3.38;;
25717;SDS011;13574;52.040;5.692;2023-02-02T02:00:50;16.73;;;3.05;;
25717;SDS011;13574;52.040;5.692;2023-02-02T02:03:18;14.35;;;2.75;;
25717;SDS011;13574;52.040;5.692;2023-02-02T02:05:48;13.40;;;2.58;;
25717;SDS011;13574;52.040;5.692;2023-02-02T02:11:11;9.57;;;2.20;;
25717;SDS011;13574;52.040;5.692;2023-02-02T02:13:37;9.98;;;2.08;;
25717;SDS011;13574;52.040;5.692;2023-02-02T02:19:04;15.50;;;2.80;;
25717;SDS011;13574;52.040;5.692;2023-02-02T02:22:08;9.57;;;2.20;;
25717;SDS011;13574;52.040;5.692;2023-02-02T02:28:28;10.80;;;2.42;;
25717;SDS011;13574;52.040;5.692;2023-02-02T02:31:18;10.77;;;2.70;;
25717;SDS011;13574;52.040;5.692;2023-02-02T02:34:02;10.63;;;2.40;;
25717;SDS011;13574;52.040;5.692;2023-02-02T02:39:31;15.10;;;3.40;;
25717;SDS011;13574;52.040;5.692;2023-02-02T02:41:55;14.32;;;3.10;;
25717;SDS011;13574;52.040;5.692;2023-02-02T02:46:50;10.38;;;3.17;;
25717;SDS011;13574;52.040;5.692;2023-02-02T02:49:17;15.00;;;3.30;;
25717;SDS011;13574;52.040;5.692;2023-02-02T02:54:10;15.18;;;3.95;;
25717;SDS011;13574;52.040;5.692;2023-02-02T02:56:53;14.32;;;3.65;;
25717;SDS011;13574;52.040;5.692;2023-02-02T03:02:34;10.45;;;3.35;;
25717;SDS011;13574;52.040;5.692;2023-02-02T03:10:35;14.63;;;3.78;;
25717;SDS011;13574;52.040;5.692;2023-02-02T03:13:08;13.27;;;3.33;;
25717;SDS011;13574;52.040;5.692;2023-02-02T03:18:00;12.68;;;3.78;;
25717;SDS011;13574;52.040;5.692;2023-02-02T03:20:26;18.05;;;3.40;;
25717;SDS011;13574;52.040;5.692;2023-02-02T03:22:52;15.50;;;3.70;;
25717;SDS011;13574;52.040;5.692;2023-02-02T03:25:17;18.15;;;3.72;;
25717;SDS011;13574;52.040;5.692;2023-02-02T03:27:43;22.55;;;4.53;;
25717;SDS011;13574;52.040;5.692;2023-02-02T03:30:10;19.05;;;3.78;;
25717;SDS011;13574;52.040;5.692;2023-02-02T03:32:37;20.65;;;4.30;;
25717;SDS011;13574;52.040;5.692;2023-02-02T03:35:03;19.08;;;4.07;;
25717;SDS011;13574;52.040;5.692;2023-02-02T03:37:29;24.83;;;4.88;;
25717;SDS011;13574;52.040;5.692;2023-02-02T03:39:55;25.58;;;4.38;;
25717;SDS011;13574;52.040;5.692;2023-02-02T03:42:21;27.92;;;4.10;;
25717;SDS011;13574;52.040;5.692;2023-02-02T03:44:46;18.13;;;3.85;;
25717;SDS011;13574;52.040;5.692;2023-02-02T03:47:12;19.60;;;4.28;;
25717;SDS011;13574;52.040;5.692;2023-02-02T03:49:37;23.20;;;4.55;;
25717;SDS011;13574;52.040;5.692;2023-02-02T03:52:03;25.33;;;4.00;;
25717;SDS011;13574;52.040;5.692;2023-02-02T03:54:29;22.58;;;4.13;;
25717;SDS011;13574;52.040;5.692;2023-02-02T03:56:55;25.60;;;4.90;;
25717;SDS011;13574;52.040;5.692;2023-02-02T03:59:21;23.02;;;4.43;;
25717;SDS011;13574;52.040;5.692;2023-02-02T04:01:47;23.13;;;4.50;;
25717;SDS011;13574;52.040;5.692;2023-02-02T04:04:12;20.48;;;4.18;;
25717;SDS011;13574;52.040;5.692;2023-02-02T04:06:38;18.67;;;4.03;;
25717;SDS011;13574;52.040;5.692;2023-02-02T04:09:04;25.85;;;4.95;;
25717;SDS011;13574;52.040;5.692;2023-02-02T04:11:29;23.58;;;4.30;;
25717;SDS011;13574;52.040;5.692;2023-02-02T04:13:55;23.33;;;5.00;;
25717;SDS011;13574;52.040;5.692;2023-02-02T04:16:20;18.65;;;4.40;;
25717;SDS011;13574;52.040;5.692;2023-02-02T04:18:46;24.80;;;4.70;;
25717;SDS011;13574;52.040;5.692;2023-02-02T04:21:12;18.63;;;4.32;;
25717;SDS011;13574;52.040;5.692;2023-02-02T04:23:37;20.33;;;4.32;;
25717;SDS011;13574;52.040;5.692;2023-02-02T04:26:03;29.95;;;4.53;;
25717;SDS011;13574;52.040;5.692;2023-02-02T04:28:29;20.85;;;4.80;;
25717;SDS011;13574;52.040;5.692;2023-02-02T04:30:55;20.02;;;4.50;;
25717;SDS011;13574;52.040;5.692;2023-02-02T04:33:22;31.27;;;4.95;;
25717;SDS011;13574;52.040;5.692;2023-02-02T04:35:49;25.85;;;4.10;;
25717;SDS011;13574;52.040;5.692;2023-02-02T04:38:14;16.52;;;4.03;;
25717;SDS011;13574;52.040;5.692;2023-02-02T04:40:41;29.27;;;4.43;;
25717;SDS011;13574;52.040;5.692;2023-02-02T04:43:08;23.30;;;3.95;;
25717;SDS011;13574;52.040;5.692;2023-02-02T04:45:34;23.30;;;4.15;;
25717;SDS011;13574;52.040;5.692;2023-02-02T04:47:59;22.58;;;4.30;;
25717;SDS011;13574;52.040;5.692;2023-02-02T04:50:25;21.95;;;4.07;;
25717;SDS011;13574;52.040;5.692;2023-02-02T04:52:51;20.50;;;3.53;;
25717;SDS011;13574;52.040;5.692;2023-02-02T04:55:16;21.27;;;4.35;;
25717;SDS011;13574;52.040;5.692;2023-02-02T04:57:42;24.33;;;4.10;;
25717;SDS011;13574;52.040;5.692;2023-02-02T05:00:09;19.52;;;3.70;;
25717;SDS011;13574;52.040;5.692;2023-02-02T05:02:36;21.85;;;3.80;;
25717;SDS011;13574;52.040;5.692;2023-02-02T05:05:03;17.67;;;3.90;;
25717;SDS011;13574;52.040;5.692;2023-02-02T05:07:30;20.45;;;4.13;;
25717;SDS011;13574;52.040;5.692;2023-02-02T05:09:56;19.25;;;3.72;;
25717;SDS011;13574;52.040;5.692;2023-02-02T05:12:21;22.35;;;3.85;;
25717;SDS011;13574;52.040;5.692;2023-02-02T05:14:50;17.95;;;3.45;;
25717;SDS011;13574;52.040;5.692;2023-02-02T05:17:16;24.13;;;3.67;;
25717;SDS011;13574;52.040;5.692;2023-02-02T05:19:41;19.63;;;3.63;;
25717;SDS011;13574;52.040;5.692;2023-02-02T05:22:07;19.95;;;3.90;;
25717;SDS011;13574;52.040;5.692;2023-02-02T05:24:33;20.45;;;3.80;;
25717;SDS011;13574;52.040;5.692;2023-02-02T05:27:02;21.27;;;4.20;;
25717;SDS011;13574;52.040;5.692;2023-02-02T05:29:28;29.45;;;4.35;;
25717;SDS011;13574;52.040;5.692;2023-02-02T05:31:54;23.00;;;4.20;;
25717;SDS011;13574;52.040;5.692;2023-02-02T05:34:21;18.13;;;4.10;;
25717;SDS011;13574;52.040;5.692;2023-02-02T05:36:47;23.25;;;4.35;;
25717;SDS011;13574;52.040;5.692;2023-02-02T05:39:13;22.08;;;4.63;;
25717;SDS011;13574;52.040;5.692;2023-02-02T05:41:39;15.85;;;4.28;;
25717;SDS011;13574;52.040;5.692;2023-02-02T05:44:05;17.80;;;4.22;;
25717;SDS011;13574;52.040;5.692;2023-02-02T05:46:30;18.23;;;4.38;;
25717;SDS011;13574;52.040;5.692;2023-02-02T05:48:57;15.35;;;4.40;;
25717;SDS011;13574;52.040;5.692;2023-02-02T05:51:27;21.88;;;4.57;;
25717;SDS011;13574;52.040;5.692;2023-02-02T05:53:55;19.27;;;4.70;;
25717;SDS011;13574;52.040;5.692;2023-02-02T05:56:21;20.77;;;4.88;;
25717;SDS011;13574;52.040;5.692;2023-02-02T05:58:47;18.63;;;4.05;;
25717;SDS011;13574;52.040;5.692;2023-02-02T06:01:14;14.82;;;4.20;;
25717;SDS011;13574;52.040;5.692;2023-02-02T06:03:41;20.73;;;4.45;;
25717;SDS011;13574;52.040;5.692;2023-02-02T06:06:07;17.73;;;4.57;;
25717;SDS011;13574;52.040;5.692;2023-02-02T06:08:33;20.55;;;4.45;;
25717;SDS011;13574;52.040;5.692;2023-02-02T06:10:59;19.02;;;4.25;;
25717;SDS011;13574;52.040;5.692;2023-02-02T06:13:32;18.50;;;4.35;;
25717;SDS011;13574;52.040;5.692;2023-02-02T06:15:57;14.75;;;4.38;;
25717;SDS011;13574;52.040;5.692;2023-02-02T06:18:23;19.65;;;4.35;;
25717;SDS011;13574;52.040;5.692;2023-02-02T06:20:54;15.05;;;3.80;;
25717;SDS011;13574;52.040;5.692;2023-02-02T06:23:23;15.15;;;4.20;;
25717;SDS011;13574;52.040;5.692;2023-02-02T06:25:49;18.40;;;4.07;;
25717;SDS011;13574;52.040;5.692;2023-02-02T06:28:15;17.27;;;4.30;;
25717;SDS011;13574;52.040;5.692;2023-02-02T06:30:41;18.88;;;3.47;;
25717;SDS011;13574;52.040;5.692;2023-02-02T06:33:06;18.88;;;3.40;;
25717;SDS011;13574;52.040;5.692;2023-02-02T06:35:32;16.50;;;3.95;;
25717;SDS011;13574;52.040;5.692;2023-02-02T06:37:58;16.85;;;3.95;;
25717;SDS011;13574;52.040;5.692;2023-02-02T06:40:24;17.23;;;4.00;;
25717;SDS011;13574;52.040;5.692;2023-02-02T06:43:09;17.40;;;4.15;;
25717;SDS011;13574;52.040;5.692;2023-02-02T06:45:38;18.75;;;4.25;;
25717;SDS011;13574;52.040;5.692;2023-02-02T06:48:04;16.60;;;4.03;;
25717;SDS011;13574;52.040;5.692;2023-02-02T06:50:34;15.77;;;3.58;;
25717;SDS011;13574;52.040;5.692;2023-02-02T06:53:01;23.50;;;4.38;;
25717;SDS011;13574;52.040;5.692;2023-02-02T06:55:27;20.90;;;4.00;;
25717;SDS011;13574;52.040;5.692;2023-02-02T06:57:56;15.57;;;4.32;;
25717;SDS011;13574;52.040;5.692;2023-02-02T07:00:22;19.38;;;4.40;;
25717;SDS011;13574;52.040;5.692;2023-02-02T07:02:49;19.88;;;4.15;;
25717;SDS011;13574;52.040;5.692;2023-02-02T07:05:14;16.67;;;3.65;;
25717;SDS011;13574;52.040;5.692;2023-02-02T07:07:43;23.35;;;3.90;;
25717;SDS011;13574;52.040;5.692;2023-02-02T07:10:09;19.85;;;4.55;;
25717;SDS011;13574;52.040;5.692;2023-02-02T07:12:35;18.02;;;4.50;;
25717;SDS011;13574;52.040;5.692;2023-02-02T07:15:01;17.35;;;4.05;;
25717;SDS011;13574;52.040;5.692;2023-02-02T07:17:27;17.50;;;4.65;;
25717;SDS011;13574;52.040;5.692;2023-02-02T07:19:53;22.50;;;5.15;;
25717;SDS011;13574;52.040;5.692;2023-02-02T07:22:19;16.63;;;4.45;;
25717;SDS011;13574;52.040;5.692;2023-02-02T07:24:44;21.90;;;4.70;;
25717;SDS011;13574;52.040;5.692;2023-02-02T07:27:10;26.92;;;4.95;;
25717;SDS011;13574;52.040;5.692;2023-02-02T07:29:35;19.25;;;5.00;;
25717;SDS011;13574;52.040;5.692;2023-02-02T07:32:01;17.92;;;4.82;;
25717;SDS011;13574;52.040;5.692;2023-02-02T07:34:27;15.82;;;4.65;;
25717;SDS011;13574;52.040;5.692;2023-02-02T07:36:52;18.67;;;5.22;;
25717;SDS011;13574;52.040;5.692;2023-02-02T07:39:18;17.17;;;5.45;;
25717;SDS011;13574;52.040;5.692;2023-02-02T07:41:43;22.95;;;5.18;;
25717;SDS011;13574;52.040;5.692;2023-02-02T07:44:11;22.15;;;5.40;;
25717;SDS011;13574;52.040;5.692;2023-02-02T07:46:44;21.50;;;5.95;;
25717;SDS011;13574;52.040;5.692;2023-02-02T07:49:14;21.65;;;5.30;;
25717;SDS011;13574;52.040;5.692;2023-02-02T07:51:41;22.05;;;5.88;;
25717;SDS011;13574;52.040;5.692;2023-02-02T07:54:07;18.70;;;5.22;;
25717;SDS011;13574;52.040;5.692;2023-02-02T07:56:33;25.65;;;5.90;;
25717;SDS011;13574;52.040;5.692;2023-02-02T07:59:01;18.15;;;5.75;;
25717;SDS011;13574;52.040;5.692;2023-02-02T08:01:27;22.90;;;5.88;;
25717;SDS011;13574;52.040;5.692;2023-02-02T08:03:53;18.38;;;5.60;;
25717;SDS011;13574;52.040;5.692;2023-02-02T08:06:22;19.02;;;5.15;;
25717;SDS011;13574;52.040;5.692;2023-02-02T08:08:49;24.63;;;5.70;;
25717;SDS011;13574;52.040;5.692;2023-02-02T08:11:17;21.50;;;5.30;;
25717;SDS011;13574;52.040;5.692;2023-02-02T08:13:44;21.70;;;5.68;;
25717;SDS011;13574;52.040;5.692;2023-02-02T08:16:13;20.23;;;4.78;;
25717;SDS011;13574;52.040;5.692;2023-02-02T08:18:39;22.15;;;5.43;;
25717;SDS011;13574;52.040;5.692;2023-02-02T08:21:06;19.38;;;5.13;;
25717;SDS011;13574;52.040;5.692;2023-02-02T08:23:33;24.65;;;5.20;;
25717;SDS011;13574;52.040;5.692;2023-02-02T08:26:07;21.20;;;5.18;;
25717;SDS011;13574;52.040;5.692;2023-02-02T08:28:33;20.50;;;5.03;;
25717;SDS011;13574;52.040;5.692;2023-02-02T08:33:59;22.25;;;4.40;;
25717;SDS011;13574;52.040;5.692;2023-02-02T08:36:26;16.48;;;4.32;;
25717;SDS011;13574;52.040;5.692;2023-02-02T08:38:54;19.20;;;4.43;;
25717;SDS011;13574;52.040;5.692;2023-02-02T08:41:21;18.85;;;4.30;;
25717;SDS011;13574;52.040;5.692;2023-02-02T08:43:48;24.08;;;4.40;;
25717;SDS011;13574;52.040;5.692;2023-02-02T08:46:15;18.13;;;4.57;;
25717;SDS011;13574;52.040;5.692;2023-02-02T08:48:42;16.55;;;4.38;;
25717;SDS011;13574;52.040;5.692;2023-02-02T08:51:12;15.48;;;4.35;;
25717;SDS011;13574;52.040;5.692;2023-02-02T08:53:40;16.80;;;4.28;;
25717;SDS011;13574;52.040;5.692;2023-02-02T08:56:10;16.77;;;3.97;;
25717;SDS011;13574;52.040;5.692;2023-02-02T09:03:33;23.45;;;4.05;;
25717;SDS011;13574;52.040;5.692;2023-02-02T09:06:06;22.05;;;4.20;;
25717;SDS011;13574;52.040;5.692;2023-02-02T09:08:33;17.27;;;4.65;;
25717;SDS011;13574;52.040;5.692;2023-02-02T09:11:04;17.98;;;4.00;;
25717;SDS011;13574;52.040;5.692;2023-02-02T09:13:34;18.73;;;3.88;;
25717;SDS011;13574;52.040;5.692;2023-02-02T09:16:01;17.13;;;4.80;;
25717;SDS011;13574;52.040;5.692;2023-02-02T09:18:28;12.95;;;3.72;;
25717;SDS011;13574;52.040;5.692;2023-02-02T09:20:58;13.05;;;3.42;;
25717;SDS011;13574;52.040;5.692;2023-02-02T09:23:24;20.67;;;4.75;;
25717;SDS011;13574;52.040;5.692;2023-02-02T09:25:51;25.73;;;4.40;;
25717;SDS011;13574;52.040;5.692;2023-02-02T09:28:16;16.13;;;3.58;;
25717;SDS011;13574;52.040;5.692;2023-02-02T09:30:42;16.67;;;3.40;;
25717;SDS011;13574;52.040;5.692;2023-02-02T09:33:08;15.73;;;3.80;;
25717;SDS011;13574;52.040;5.692;2023-02-02T09:35:33;18.50;;;3.97;;
25717;SDS011;13574;52.040;5.692;2023-02-02T09:37:59;19.77;;;3.42;;
25717;SDS011;13574;52.040;5.692;2023-02-02T09:40:25;15.82;;;3.60;;
25717;SDS011;13574;52.040;5.692;2023-02-02T09:53:14;25.73;;;3.72;;
25717;SDS011;13574;52.040;5.692;2023-02-02T09:55:51;17.75;;;3.85;;
25717;SDS011;13574;52.040;5.692;2023-02-02T09:58:30;20.75;;;3.97;;
25717;SDS011;13574;52.040;5.692;2023-02-02T10:03:55;17.50;;;3.58;;
25717;SDS011;13574;52.040;5.692;2023-02-02T10:09:02;18.98;;;4.38;;
25717;SDS011;13574;52.040;5.692;2023-02-02T10:12:11;16.80;;;3.83;;
25717;SDS011;13574;52.040;5.692;2023-02-02T10:14:57;13.50;;;3.45;;
25717;SDS011;13574;52.040;5.692;2023-02-02T10:17:54;15.23;;;3.65;;
25717;SDS011;13574;52.040;5.692;2023-02-02T10:20:42;16.45;;;3.47;;
25717;SDS011;13574;52.040;5.692;2023-02-02T10:31:09;18.58;;;4.05;;
25717;SDS011;13574;52.040;5.692;2023-02-02T10:33:49;13.98;;;4.00;;
25717;SDS011;13574;52.040;5.692;2023-02-02T10:36:30;16.80;;;4.57;;
25717;SDS011;13574;52.040;5.692;2023-02-02T10:39:07;20.60;;;4.30;;
25717;SDS011;13574;52.040;5.692;2023-02-02T10:41:50;16.17;;;4.30;;
25717;SDS011;13574;52.040;5.692;2023-02-02T10:44:42;20.63;;;4.22;;
25717;SDS011;13574;52.040;5.692;2023-02-02T10:47:37;13.27;;;4.40;;
25717;SDS011;13574;52.040;5.692;2023-02-02T10:50:21;16.52;;;4.60;;
25717;SDS011;13574;52.040;5.692;2023-02-02T10:52:59;19.42;;;4.97;;
25717;SDS011;13574;52.040;5.692;2023-02-02T10:55:35;15.07;;;4.60;;
25717;SDS011;13574;52.040;5.692;2023-02-02T11:03:16;23.05;;;4.30;;
25717;SDS011;13574;52.040;5.692;2023-02-02T11:05:44;17.15;;;3.88;;
25717;SDS011;13574;52.040;5.692;2023-02-02T11:13:42;16.30;;;4.53;;
25717;SDS011;13574;52.040;5.692;2023-02-02T11:18:39;12.18;;;3.53;;
25717;SDS011;13574;52.040;5.692;2023-02-02T11:21:27;17.63;;;4.72;;
25717;SDS011;13574;52.040;5.692;2023-02-02T11:23:53;17.17;;;4.15;;
25717;SDS011;13574;52.040;5.692;2023-02-02T11:26:41;16.73;;;4.57;;
25717;SDS011;13574;52.040;5.692;2023-02-02T11:31:41;16.90;;;3.92;;
25717;SDS011;13574;52.040;5.692;2023-02-02T11:34:14;20.00;;;4.85;;
25717;SDS011;13574;52.040;5.692;2023-02-02T11:36:59;14.52;;;4.15;;
25717;SDS011;13574;52.040;5.692;2023-02-02T11:39:36;12.55;;;3.92;;
25717;SDS011;13574;52.040;5.692;2023-02-02T11:42:15;16.33;;;4.13;;
25717;SDS011;13574;52.040;5.692;2023-02-02T11:44:44;16.33;;;3.92;;
25717;SDS011;13574;52.040;5.692;2023-02-02T11:47:31;11.80;;;4.15;;
25717;SDS011;13574;52.040;5.692;2023-02-02T11:49:58;17.13;;;3.85;;
25717;SDS011;13574;52.040;5.692;2023-02-02T11:52:26;12.30;;;3.75;;
25717;SDS011;13574;52.040;5.692;2023-02-02T11:54:58;20.48;;;3.72;;
25717;SDS011;13574;52.040;5.692;2023-02-02T11:57:26;18.63;;;4.30;;
25717;SDS011;13574;52.040;5.692;2023-02-02T12:02:32;14.40;;;3.92;;
25717;SDS011;13574;52.040;5.692;2023-02-02T12:07:35;17.70;;;3.50;;
25717;SDS011;13574;52.040;5.692;2023-02-02T12:12:57;12.05;;;3.33;;
25717;SDS011;13574;52.040;5.692;2023-02-02T12:21:42;11.00;;;3.20;;
25717;SDS011;13574;52.040;5.692;2023-02-02T12:29:56;9.75;;;2.95;;
25717;SDS011;13574;52.040;5.692;2023-02-02T12:38:40;14.25;;;3.10;;
25717;SDS011;13574;52.040;5.692;2023-02-02T12:41:21;15.18;;;3.20;;
25717;SDS011;13574;52.040;5.692;2023-02-02T12:44:12;8.80;;;2.90;;
25717;SDS011;13574;52.040;5.692;2023-02-02T12:54:58;13.25;;;2.53;;
25717;SDS011;13574;52.040;5.692;2023-02-02T13:09:27;12.95;;;2.90;;
25717;SDS011;13574;52.040;5.692;2023-02-02T13:12:07;12.40;;;2.92;;
25717;SDS011;13574;52.040;5.692;2023-02-02T13:14:36;16.05;;;2.92;;
25717;SDS011;13574;52.040;5.692;2023-02-02T13:17:08;12.55;;;2.67;;
25717;SDS011;13574;52.040;5.692;2023-02-02T13:19:40;12.93;;;2.90;;
25717;SDS011;13574;52.040;5.692;2023-02-02T13:22:15;13.15;;;2.85;;
25717;SDS011;13574;52.040;5.692;2023-02-02T13:24:44;10.65;;;2.92;;
25717;SDS011;13574;52.040;5.692;2023-02-02T13:27:13;18.40;;;3.20;;
25717;SDS011;13574;52.040;5.692;2023-02-02T13:29:43;14.50;;;3.63;;
25717;SDS011;13574;52.040;5.692;2023-02-02T13:40:31;13.13;;;3.50;;
25717;SDS011;13574;52.040;5.692;2023-02-02T13:46:01;16.08;;;3.70;;
25717;SDS011;13574;52.040;5.692;2023-02-02T13:48:35;12.60;;;4.22;;
25717;SDS011;13574;52.040;5.692;2023-02-02T13:53:34;9.90;;;3.88;;
25717;SDS011;13574;52.040;5.692;2023-02-02T14:02:01;15.07;;;6.03;;
25717;SDS011;13574;52.040;5.692;2023-02-02T14:04:28;14.48;;;6.05;;
25717;SDS011;13574;52.040;5.692;2023-02-02T14:06:57;14.75;;;6.47;;
25717;SDS011;13574;52.040;5.692;2023-02-02T14:09:26;14.63;;;7.13;;
25717;SDS011;13574;52.040;5.692;2023-02-02T14:11:58;14.73;;;6.90;;
25717;SDS011;13574;52.040;5.692;2023-02-02T14:14:31;12.98;;;6.50;;
25717;SDS011;13574;52.040;5.692;2023-02-02T14:19:47;14.75;;;6.70;;
25717;SDS011;13574;52.040;5.692;2023-02-02T14:22:16;13.13;;;5.53;;
25717;SDS011;13574;52.040;5.692;2023-02-02T14:24:44;13.35;;;5.20;;
25717;SDS011;13574;52.040;5.692;2023-02-02T14:34:57;8.27;;;4.57;;
25717;SDS011;13574;52.040;5.692;2023-02-02T14:40:25;11.32;;;5.20;;
25717;SDS011;13574;52.040;5.692;2023-02-02T14:48:38;9.98;;;5.47;;
25717;SDS011;13574;52.040;5.692;2023-02-02T14:51:13;10.13;;;6.10;;
25717;SDS011;13574;52.040;5.692;2023-02-02T14:53:55;9.40;;;5.78;;
25717;SDS011;13574;52.040;5.692;2023-02-02T14:59:22;9.07;;;5.28;;
25717;SDS011;13574;52.040;5.692;2023-02-02T15:01:53;9.52;;;5.38;;
25717;SDS011;13574;52.040;5.692;2023-02-02T15:04:26;9.90;;;5.43;;
25717;SDS011;13574;52.040;5.692;2023-02-02T15:06:53;9.10;;;5.43;;
25717;SDS011;13574;52.040;5.692;2023-02-02T15:14:32;7.97;;;4.95;;
25717;SDS011;13574;52.040;5.692;2023-02-02T15:25:53;8.43;;;5.45;;
25717;SDS011;13574;52.040;5.692;2023-02-02T15:28:43;8.32;;;5.65;;
25717;SDS011;13574;52.040;5.692;2023-02-02T15:33:50;8.88;;;6.18;;
25717;SDS011;13574;52.040;5.692;2023-02-02T15:36:21;9.63;;;6.32;;
25717;SDS011;13574;52.040;5.692;2023-02-02T15:41:54;8.77;;;5.85;;
25717;SDS011;13574;52.040;5.692;2023-02-02T15:44:39;9.02;;;5.93;;
25717;SDS011;13574;52.040;5.692;2023-02-02T15:47:11;8.38;;;5.88;;
25717;SDS011;13574;52.040;5.692;2023-02-02T15:49:49;10.73;;;6.40;;
25717;SDS011;13574;52.040;5.692;2023-02-02T15:52:17;9.00;;;6.57;;
25717;SDS011;13574;52.040;5.692;2023-02-02T15:55:34;10.38;;;7.10;;
25717;SDS011;13574;52.040;5.692;2023-02-02T15:57:49;10.73;;;6.93;;
25717;SDS011;13574;52.040;5.692;2023-02-02T16:02:49;10.35;;;7.60;;
25717;SDS011;13574;52.040;5.692;2023-02-02T16:06:02;12.82;;;8.00;;
25717;SDS011;13574;52.040;5.692;2023-02-02T16:08:17;11.80;;;8.35;;
25717;SDS011;13574;52.040;5.692;2023-02-02T16:10:47;13.00;;;8.50;;
25717;SDS011;13574;52.040;5.692;2023-02-02T16:13:24;15.57;;;9.57;;
25717;SDS011;13574;52.040;5.692;2023-02-02T16:16:02;13.05;;;9.00;;
25717;SDS011;13574;52.040;5.692;2023-02-02T16:18:30;12.82;;;9.45;;
25717;SDS011;13574;52.040;5.692;2023-02-02T16:20:59;14.70;;;8.77;;
25717;SDS011;13574;52.040;5.692;2023-02-02T16:23:30;14.45;;;9.27;;
25717;SDS011;13574;52.040;5.692;2023-02-02T16:25:59;15.13;;;10.20;;
25717;SDS011;13574;52.040;5.692;2023-02-02T16:28:27;13.73;;;9.73;;
25717;SDS011;13574;52.040;5.692;2023-02-02T16:30:53;17.63;;;10.10;;
25717;SDS011;13574;52.040;5.692;2023-02-02T16:33:26;20.08;;;10.20;;
25717;SDS011;13574;52.040;5.692;2023-02-02T16:35:53;16.80;;;10.00;;
25717;SDS011;13574;52.040;5.692;2023-02-02T16:38:21;16.75;;;10.10;;
25717;SDS011;13574;52.040;5.692;2023-02-02T16:41:11;17.47;;;10.60;;
25717;SDS011;13574;52.040;5.692;2023-02-02T16:43:37;17.85;;;11.32;;
25717;SDS011;13574;52.040;5.692;2023-02-02T16:46:06;16.17;;;11.55;;
25717;SDS011;13574;52.040;5.692;2023-02-02T16:48:38;20.58;;;12.38;;
25717;SDS011;13574;52.040;5.692;2023-02-02T16:51:24;23.98;;;13.13;;
25717;SDS011;13574;52.040;5.692;2023-02-02T16:54:01;23.30;;;14.68;;
25717;SDS011;13574;52.040;5.692;2023-02-02T16:56:41;25.60;;;15.88;;
25717;SDS011;13574;52.040;5.692;2023-02-02T17:01:55;28.10;;;16.85;;
25717;SDS011;13574;52.040;5.692;2023-02-02T17:04:32;27.55;;;16.95;;
25717;SDS011;13574;52.040;5.692;2023-02-02T17:07:08;29.13;;;16.98;;
25717;SDS011;13574;52.040;5.692;2023-02-02T17:09:41;29.33;;;17.00;;
25717;SDS011;13574;52.040;5.692;2023-02-02T17:14:58;30.48;;;17.60;;
25717;SDS011;13574;52.040;5.692;2023-02-02T17:17:44;35.25;;;16.55;;
25717;SDS011;13574;52.040;5.692;2023-02-02T17:20:14;32.70;;;16.50;;
25717;SDS011;13574;52.040;5.692;2023-02-02T17:22:42;32.80;;;16.05;;
25717;SDS011;13574;52.040;5.692;2023-02-02T17:25:16;30.77;;;16.02;;
25717;SDS011;13574;52.040;5.692;2023-02-02T17:27:46;35.35;;;17.30;;
25717;SDS011;13574;52.040;5.692;2023-02-02T17:30:15;40.03;;;17.40;;
25717;SDS011;13574;52.040;5.692;2023-02-02T17:32:42;30.75;;;17.52;;
25717;SDS011;13574;52.040;5.692;2023-02-02T17:35:14;34.47;;;16.33;;
25717;SDS011;13574;52.040;5.692;2023-02-02T17:37:41;35.20;;;14.60;;
25717;SDS011;13574;52.040;5.692;2023-02-02T17:40:17;37.28;;;15.20;;
25717;SDS011;13574;52.040;5.692;2023-02-02T17:42:44;30.88;;;13.38;;
25717;SDS011;13574;52.040;5.692;2023-02-02T17:45:15;31.10;;;14.07;;
25717;SDS011;13574;52.040;5.692;2023-02-02T17:47:54;36.42;;;15.30;;
25717;SDS011;13574;52.040;5.692;2023-02-02T17:50:20;33.53;;;13.18;;
25717;SDS011;13574;52.040;5.692;2023-02-02T17:52:46;29.67;;;13.70;;
25717;SDS011;13574;52.040;5.692;2023-02-02T17:55:20;35.45;;;14.18;;
25717;SDS011;13574;52.040;5.692;2023-02-02T17:57:52;32.83;;;12.55;;
25717;SDS011;13574;52.040;5.692;2023-02-02T18:00:19;25.10;;;12.30;;